sensor_id;sensor_type;location;lat;lon;timestamp;temperature;humidity
45104;DHT22;30865;51.288;4.572;2022-12-31T00:01:18;12.00;99.90
45104;DHT22;30865;51.288;4.572;2022-12-31T00:03:44;12.10;99.90
45104;DHT22;30865;51.288;4.572;2022-12-31T00:06:26;12.10;99.90
45104;DHT22;30865;51.288;4.572;2022-12-31T00:08:53;12.00;99.90
45104;DHT22;30865;51.288;4.572;2022-12-31T00:11:20;12.10;99.90
45104;DHT22;30865;51.288;4.572;2022-12-31T00:13:46;12.20;99.90
45104;DHT22;30865;51.288;4.572;2022-12-31T00:16:23;12.20;99.90
45104;DHT22;30865;51.288;4.572;2022-12-31T00:18:53;12.30;99.70
45104;DHT22;30865;51.288;4.572;2022-12-31T00:21:20;12.30;99.90
45104;DHT22;30865;51.288;4.572;2022-12-31T00:23:46;12.20;99.90
45104;DHT22;30865;51.288;4.572;2022-12-31T00:26:14;12.30;99.90
45104;DHT22;30865;51.288;4.572;2022-12-31T00:28:41;12.20;99.60
45104;DHT22;30865;51.288;4.572;2022-12-31T00:33:37;12.20;99.70
45104;DHT22;30865;51.288;4.572;2022-12-31T00:36:10;12.20;99.90
45104;DHT22;30865;51.288;4.572;2022-12-31T00:38:37;12.40;99.50
45104;DHT22;30865;51.288;4.572;2022-12-31T00:41:03;12.50;99.70
45104;DHT22;30865;51.288;4.572;2022-12-31T00:43:28;12.40;99.80
45104;DHT22;30865;51.288;4.572;2022-12-31T00:45:54;12.30;99.80
45104;DHT22;30865;51.288;4.572;2022-12-31T00:48:20;12.30;99.50
45104;DHT22;30865;51.288;4.572;2022-12-31T00:50:45;12.30;99.90
45104;DHT22;30865;51.288;4.572;2022-12-31T00:53:11;12.40;99.70
45104;DHT22;30865;51.288;4.572;2022-12-31T00:55:36;12.50;99.90
45104;DHT22;30865;51.288;4.572;2022-12-31T00:58:02;12.50;99.10
45104;DHT22;30865;51.288;4.572;2022-12-31T01:00:27;12.60;98.90
45104;DHT22;30865;51.288;4.572;2022-12-31T01:02:53;12.50;98.90
45104;DHT22;30865;51.288;4.572;2022-12-31T01:05:18;12.70;98.50
45104;DHT22;30865;51.288;4.572;2022-12-31T01:07:44;12.60;99.40
45104;DHT22;30865;51.288;4.572;2022-12-31T01:10:09;12.50;99.40
45104;DHT22;30865;51.288;4.572;2022-12-31T01:12:35;12.60;99.20
45104;DHT22;30865;51.288;4.572;2022-12-31T01:15:00;12.50;99.70
45104;DHT22;30865;51.288;4.572;2022-12-31T01:17:26;12.50;99.30
45104;DHT22;30865;51.288;4.572;2022-12-31T01:19:51;12.50;99.30
45104;DHT22;30865;51.288;4.572;2022-12-31T01:22:17;12.50;99.20
45104;DHT22;30865;51.288;4.572;2022-12-31T01:24:42;12.40;99.60
45104;DHT22;30865;51.288;4.572;2022-12-31T01:27:08;12.40;99.90
45104;DHT22;30865;51.288;4.572;2022-12-31T01:29:33;12.40;99.80
45104;DHT22;30865;51.288;4.572;2022-12-31T01:31:59;12.40;99.30
45104;DHT22;30865;51.288;4.572;2022-12-31T01:34:24;12.40;99.70
45104;DHT22;30865;51.288;4.572;2022-12-31T01:36:50;12.30;99.90
45104;DHT22;30865;51.288;4.572;2022-12-31T01:39:15;12.30;99.90
45104;DHT22;30865;51.288;4.572;2022-12-31T01:41:44;12.30;99.90
45104;DHT22;30865;51.288;4.572;2022-12-31T01:46:52;12.20;99.90
45104;DHT22;30865;51.288;4.572;2022-12-31T01:49:30;12.20;99.90
45104;DHT22;30865;51.288;4.572;2022-12-31T01:54:33;12.20;99.90
45104;DHT22;30865;51.288;4.572;2022-12-31T01:57:01;12.10;99.90
45104;DHT22;30865;51.288;4.572;2022-12-31T01:59:28;12.00;99.90
45104;DHT22;30865;51.288;4.572;2022-12-31T02:01:54;12.00;99.90
45104;DHT22;30865;51.288;4.572;2022-12-31T02:04:23;11.90;99.90
45104;DHT22;30865;51.288;4.572;2022-12-31T02:07:02;11.90;99.90
45104;DHT22;30865;51.288;4.572;2022-12-31T02:09:28;11.90;99.90
45104;DHT22;30865;51.288;4.572;2022-12-31T02:11:54;12.00;99.90
45104;DHT22;30865;51.288;4.572;2022-12-31T02:14:23;12.00;99.90
45104;DHT22;30865;51.288;4.572;2022-12-31T02:17:02;12.10;99.90
45104;DHT22;30865;51.288;4.572;2022-12-31T02:28:42;12.00;99.90
45104;DHT22;30865;51.288;4.572;2022-12-31T02:34:10;12.10;99.90
45104;DHT22;30865;51.288;4.572;2022-12-31T02:36:41;12.10;99.90
45104;DHT22;30865;51.288;4.572;2022-12-31T02:39:08;12.40;99.10
45104;DHT22;30865;51.288;4.572;2022-12-31T02:41:34;12.40;99.70
45104;DHT22;30865;51.288;4.572;2022-12-31T02:44:25;12.40;99.90
45104;DHT22;30865;51.288;4.572;2022-12-31T02:47:06;12.30;99.70
45104;DHT22;30865;51.288;4.572;2022-12-31T02:50:00;12.40;99.50
45104;DHT22;30865;51.288;4.572;2022-12-31T02:55:18;12.30;99.90
45104;DHT22;30865;51.288;4.572;2022-12-31T02:57:55;12.30;99.30
45104;DHT22;30865;51.288;4.572;2022-12-31T03:00:22;12.40;99.10
45104;DHT22;30865;51.288;4.572;2022-12-31T03:03:08;12.40;99.10
45104;DHT22;30865;51.288;4.572;2022-12-31T03:05:39;12.30;99.80
45104;DHT22;30865;51.288;4.572;2022-12-31T03:08:05;12.30;98.80
45104;DHT22;30865;51.288;4.572;2022-12-31T03:10:31;12.30;99.60
45104;DHT22;30865;51.288;4.572;2022-12-31T03:12:57;12.40;99.20
45104;DHT22;30865;51.288;4.572;2022-12-31T03:15:29;12.40;98.90
45104;DHT22;30865;51.288;4.572;2022-12-31T03:20:32;12.30;99.40
45104;DHT22;30865;51.288;4.572;2022-12-31T03:23:27;12.30;98.90
45104;DHT22;30865;51.288;4.572;2022-12-31T03:25:53;12.20;99.90
45104;DHT22;30865;51.288;4.572;2022-12-31T03:28:21;12.00;99.90
45104;DHT22;30865;51.288;4.572;2022-12-31T03:30:52;11.90;99.90
45104;DHT22;30865;51.288;4.572;2022-12-31T03:33:18;12.00;99.80
45104;DHT22;30865;51.288;4.572;2022-12-31T03:35:46;12.00;99.90
45104;DHT22;30865;51.288;4.572;2022-12-31T03:38:13;12.00;99.80
45104;DHT22;30865;51.288;4.572;2022-12-31T03:40:40;12.20;98.80
45104;DHT22;30865;51.288;4.572;2022-12-31T03:43:06;12.20;98.90
45104;DHT22;30865;51.288;4.572;2022-12-31T03:45:32;12.20;99.70
45104;DHT22;30865;51.288;4.572;2022-12-31T03:47:59;12.20;99.90
45104;DHT22;30865;51.288;4.572;2022-12-31T03:50:25;12.20;99.90
45104;DHT22;30865;51.288;4.572;2022-12-31T03:52:52;12.30;99.30
45104;DHT22;30865;51.288;4.572;2022-12-31T03:55:18;12.40;99.10
45104;DHT22;30865;51.288;4.572;2022-12-31T03:57:43;12.70;97.70
45104;DHT22;30865;51.288;4.572;2022-12-31T04:00:12;12.70;98.20
45104;DHT22;30865;51.288;4.572;2022-12-31T04:02:39;12.70;98.50
45104;DHT22;30865;51.288;4.572;2022-12-31T04:05:05;12.60;99.30
45104;DHT22;30865;51.288;4.572;2022-12-31T04:07:31;12.60;99.90
45104;DHT22;30865;51.288;4.572;2022-12-31T04:09:57;12.70;99.40
45104;DHT22;30865;51.288;4.572;2022-12-31T04:12:22;12.70;98.40
45104;DHT22;30865;51.288;4.572;2022-12-31T04:14:48;12.90;99.40
45104;DHT22;30865;51.288;4.572;2022-12-31T04:17:13;12.90;98.50
45104;DHT22;30865;51.288;4.572;2022-12-31T04:19:39;12.90;99.20
45104;DHT22;30865;51.288;4.572;2022-12-31T04:22:05;12.80;99.10
45104;DHT22;30865;51.288;4.572;2022-12-31T04:24:30;12.90;99.10
45104;DHT22;30865;51.288;4.572;2022-12-31T04:26:56;13.00;98.80
45104;DHT22;30865;51.288;4.572;2022-12-31T04:29:22;13.00;97.70
45104;DHT22;30865;51.288;4.572;2022-12-31T04:31:47;13.10;98.60
45104;DHT22;30865;51.288;4.572;2022-12-31T04:34:13;13.10;98.60
45104;DHT22;30865;51.288;4.572;2022-12-31T04:36:39;13.10;98.60
45104;DHT22;30865;51.288;4.572;2022-12-31T04:39:04;13.10;97.90
45104;DHT22;30865;51.288;4.572;2022-12-31T04:41:30;13.10;98.70
45104;DHT22;30865;51.288;4.572;2022-12-31T04:43:57;13.00;99.00
45104;DHT22;30865;51.288;4.572;2022-12-31T04:46:28;13.00;98.60
45104;DHT22;30865;51.288;4.572;2022-12-31T04:48:54;13.00;98.00
45104;DHT22;30865;51.288;4.572;2022-12-31T04:51:20;13.10;98.30
45104;DHT22;30865;51.288;4.572;2022-12-31T04:53:46;13.10;99.00
45104;DHT22;30865;51.288;4.572;2022-12-31T04:56:12;12.90;98.70
45104;DHT22;30865;51.288;4.572;2022-12-31T04:58:38;12.80;98.50
45104;DHT22;30865;51.288;4.572;2022-12-31T05:01:04;13.10;98.30
45104;DHT22;30865;51.288;4.572;2022-12-31T05:03:30;13.00;98.90
45104;DHT22;30865;51.288;4.572;2022-12-31T05:06:00;13.10;98.40
45104;DHT22;30865;51.288;4.572;2022-12-31T05:08:27;13.10;99.10
45104;DHT22;30865;51.288;4.572;2022-12-31T05:10:52;13.10;97.40
45104;DHT22;30865;51.288;4.572;2022-12-31T05:13:18;13.10;97.60
45104;DHT22;30865;51.288;4.572;2022-12-31T05:15:44;13.00;98.60
45104;DHT22;30865;51.288;4.572;2022-12-31T05:18:10;13.00;98.80
45104;DHT22;30865;51.288;4.572;2022-12-31T05:20:35;13.10;98.20
45104;DHT22;30865;51.288;4.572;2022-12-31T05:23:01;13.10;98.50
45104;DHT22;30865;51.288;4.572;2022-12-31T05:25:27;13.10;98.40
45104;DHT22;30865;51.288;4.572;2022-12-31T05:27:52;13.10;98.00
45104;DHT22;30865;51.288;4.572;2022-12-31T05:30:18;13.10;98.30
45104;DHT22;30865;51.288;4.572;2022-12-31T05:32:45;13.20;98.50
45104;DHT22;30865;51.288;4.572;2022-12-31T05:35:11;13.20;98.60
45104;DHT22;30865;51.288;4.572;2022-12-31T05:37:37;13.20;98.50
45104;DHT22;30865;51.288;4.572;2022-12-31T05:40:02;12.90;99.00
45104;DHT22;30865;51.288;4.572;2022-12-31T05:42:28;12.90;99.40
45104;DHT22;30865;51.288;4.572;2022-12-31T05:44:54;12.90;99.80
45104;DHT22;30865;51.288;4.572;2022-12-31T05:47:19;13.10;98.70
45104;DHT22;30865;51.288;4.572;2022-12-31T05:49:45;13.10;98.00
45104;DHT22;30865;51.288;4.572;2022-12-31T05:52:11;13.10;98.90
45104;DHT22;30865;51.288;4.572;2022-12-31T05:54:36;13.20;98.10
45104;DHT22;30865;51.288;4.572;2022-12-31T05:57:03;13.10;98.80
45104;DHT22;30865;51.288;4.572;2022-12-31T05:59:29;13.10;98.90
45104;DHT22;30865;51.288;4.572;2022-12-31T06:01:54;13.20;98.60
45104;DHT22;30865;51.288;4.572;2022-12-31T06:04:20;13.00;98.90
45104;DHT22;30865;51.288;4.572;2022-12-31T06:06:45;12.90;99.40
45104;DHT22;30865;51.288;4.572;2022-12-31T06:09:11;12.90;98.90
45104;DHT22;30865;51.288;4.572;2022-12-31T06:11:37;12.90;98.70
45104;DHT22;30865;51.288;4.572;2022-12-31T06:14:02;13.10;98.20
45104;DHT22;30865;51.288;4.572;2022-12-31T06:16:28;13.20;98.10
45104;DHT22;30865;51.288;4.572;2022-12-31T06:18:53;13.50;97.40
45104;DHT22;30865;51.288;4.572;2022-12-31T06:21:20;13.70;96.60
45104;DHT22;30865;51.288;4.572;2022-12-31T06:23:46;13.90;96.10
45104;DHT22;30865;51.288;4.572;2022-12-31T06:26:12;13.90;95.90
45104;DHT22;30865;51.288;4.572;2022-12-31T06:28:38;14.00;95.80
45104;DHT22;30865;51.288;4.572;2022-12-31T06:31:07;13.90;95.60
45104;DHT22;30865;51.288;4.572;2022-12-31T06:33:33;13.90;96.30
45104;DHT22;30865;51.288;4.572;2022-12-31T06:36:01;13.70;96.90
45104;DHT22;30865;51.288;4.572;2022-12-31T06:38:28;13.60;96.60
45104;DHT22;30865;51.288;4.572;2022-12-31T06:40:54;13.70;95.90
45104;DHT22;30865;51.288;4.572;2022-12-31T06:43:20;13.90;95.70
45104;DHT22;30865;51.288;4.572;2022-12-31T06:45:46;13.70;96.50
45104;DHT22;30865;51.288;4.572;2022-12-31T06:48:11;13.80;95.80
45104;DHT22;30865;51.288;4.572;2022-12-31T06:50:37;13.90;95.20
45104;DHT22;30865;51.288;4.572;2022-12-31T06:53:03;13.70;96.80
45104;DHT22;30865;51.288;4.572;2022-12-31T06:55:28;13.60;96.60
45104;DHT22;30865;51.288;4.572;2022-12-31T06:57:54;13.40;98.00
45104;DHT22;30865;51.288;4.572;2022-12-31T07:00:20;13.40;98.40
45104;DHT22;30865;51.288;4.572;2022-12-31T07:03:01;13.30;99.20
45104;DHT22;30865;51.288;4.572;2022-12-31T07:05:48;13.30;97.60
45104;DHT22;30865;51.288;4.572;2022-12-31T07:08:54;13.20;98.10
45104;DHT22;30865;51.288;4.572;2022-12-31T07:11:23;13.20;99.20
45104;DHT22;30865;51.288;4.572;2022-12-31T07:21:38;13.20;97.80
45104;DHT22;30865;51.288;4.572;2022-12-31T07:24:08;13.20;98.30
45104;DHT22;30865;51.288;4.572;2022-12-31T07:26:50;13.10;99.30
45104;DHT22;30865;51.288;4.572;2022-12-31T07:29:39;13.10;98.80
45104;DHT22;30865;51.288;4.572;2022-12-31T07:32:21;13.30;97.70
45104;DHT22;30865;51.288;4.572;2022-12-31T07:43:26;13.30;98.80
45104;DHT22;30865;51.288;4.572;2022-12-31T07:48:30;13.40;98.00
45104;DHT22;30865;51.288;4.572;2022-12-31T07:50:56;13.40;97.20
45104;DHT22;30865;51.288;4.572;2022-12-31T07:53:23;13.40;97.60
45104;DHT22;30865;51.288;4.572;2022-12-31T07:55:55;13.50;97.40
45104;DHT22;30865;51.288;4.572;2022-12-31T08:01:07;13.40;98.20
45104;DHT22;30865;51.288;4.572;2022-12-31T08:03:54;13.50;96.80
45104;DHT22;30865;51.288;4.572;2022-12-31T08:06:52;13.60;97.40
45104;DHT22;30865;51.288;4.572;2022-12-31T08:09:38;13.70;97.20
45104;DHT22;30865;51.288;4.572;2022-12-31T08:12:07;13.80;96.90
45104;DHT22;30865;51.288;4.572;2022-12-31T08:14:52;13.80;97.80
45104;DHT22;30865;51.288;4.572;2022-12-31T08:17:18;13.80;96.60
45104;DHT22;30865;51.288;4.572;2022-12-31T08:19:44;13.90;96.00
45104;DHT22;30865;51.288;4.572;2022-12-31T08:25:00;14.00;96.40
45104;DHT22;30865;51.288;4.572;2022-12-31T08:30:31;14.10;95.60
45104;DHT22;30865;51.288;4.572;2022-12-31T08:35:55;14.20;96.20
45104;DHT22;30865;51.288;4.572;2022-12-31T08:38:42;14.30;95.80
45104;DHT22;30865;51.288;4.572;2022-12-31T08:41:28;14.10;96.20
45104;DHT22;30865;51.288;4.572;2022-12-31T08:46:46;14.40;95.70
45104;DHT22;30865;51.288;4.572;2022-12-31T08:49:13;14.30;95.60
45104;DHT22;30865;51.288;4.572;2022-12-31T08:51:39;14.10;96.10
45104;DHT22;30865;51.288;4.572;2022-12-31T08:54:05;14.20;95.80
45104;DHT22;30865;51.288;4.572;2022-12-31T08:57:02;14.30;95.40
45104;DHT22;30865;51.288;4.572;2022-12-31T09:04:51;14.40;94.10
45104;DHT22;30865;51.288;4.572;2022-12-31T09:07:27;14.30;96.10
45104;DHT22;30865;51.288;4.572;2022-12-31T09:12:34;14.50;95.60
45104;DHT22;30865;51.288;4.572;2022-12-31T09:17:45;14.50;95.90
45104;DHT22;30865;51.288;4.572;2022-12-31T09:20:23;14.50;95.80
45104;DHT22;30865;51.288;4.572;2022-12-31T09:22:49;14.50;95.40
45104;DHT22;30865;51.288;4.572;2022-12-31T09:25:16;14.50;95.70
45104;DHT22;30865;51.288;4.572;2022-12-31T09:28:02;14.60;94.40
45104;DHT22;30865;51.288;4.572;2022-12-31T09:33:24;14.70;94.40
45104;DHT22;30865;51.288;4.572;2022-12-31T09:35:56;14.90;93.60
45104;DHT22;30865;51.288;4.572;2022-12-31T09:38:43;15.10;92.90
45104;DHT22;30865;51.288;4.572;2022-12-31T09:43:59;15.10;92.50
45104;DHT22;30865;51.288;4.572;2022-12-31T09:53:00;15.50;91.20
45104;DHT22;30865;51.288;4.572;2022-12-31T10:04:55;16.10;90.90
45104;DHT22;30865;51.288;4.572;2022-12-31T10:07:45;16.20;90.80
45104;DHT22;30865;51.288;4.572;2022-12-31T10:10:29;16.50;82.70
45104;DHT22;30865;51.288;4.572;2022-12-31T10:13:20;16.70;87.20
45104;DHT22;30865;51.288;4.572;2022-12-31T10:18:51;16.70;87.60
45104;DHT22;30865;51.288;4.572;2022-12-31T10:21:47;16.60;83.40
45104;DHT22;30865;51.288;4.572;2022-12-31T10:29:47;17.80;71.60
45104;DHT22;30865;51.288;4.572;2022-12-31T10:35:30;17.80;71.10
45104;DHT22;30865;51.288;4.572;2022-12-31T10:41:22;17.90;70.30
45104;DHT22;30865;51.288;4.572;2022-12-31T10:44:02;18.10;69.00
45104;DHT22;30865;51.288;4.572;2022-12-31T10:46:43;18.00;69.50
45104;DHT22;30865;51.288;4.572;2022-12-31T10:52:17;18.00;69.00
45104;DHT22;30865;51.288;4.572;2022-12-31T10:57:41;18.30;67.80
45104;DHT22;30865;51.288;4.572;2022-12-31T11:14:25;18.40;65.20
45104;DHT22;30865;51.288;4.572;2022-12-31T11:22:47;18.50;64.70
45104;DHT22;30865;51.288;4.572;2022-12-31T11:25:28;18.50;63.80
45104;DHT22;30865;51.288;4.572;2022-12-31T11:28:18;18.60;63.30
45104;DHT22;30865;51.288;4.572;2022-12-31T11:31:34;18.60;63.10
45104;DHT22;30865;51.288;4.572;2022-12-31T11:33:57;18.60;63.90
45104;DHT22;30865;51.288;4.572;2022-12-31T11:36:53;18.70;63.20
45104;DHT22;30865;51.288;4.572;2022-12-31T11:42:23;18.80;62.30
45104;DHT22;30865;51.288;4.572;2022-12-31T11:56:36;19.00;60.80
45104;DHT22;30865;51.288;4.572;2022-12-31T11:59:08;18.90;62.10
45104;DHT22;30865;51.288;4.572;2022-12-31T12:01:46;19.00;61.50
45104;DHT22;30865;51.288;4.572;2022-12-31T12:04:15;19.00;61.30
45104;DHT22;30865;51.288;4.572;2022-12-31T12:06:40;19.00;61.10
45104;DHT22;30865;51.288;4.572;2022-12-31T12:09:15;19.20;60.40
45104;DHT22;30865;51.288;4.572;2022-12-31T12:11:44;19.10;60.40
45104;DHT22;30865;51.288;4.572;2022-12-31T12:14:20;19.10;60.50
45104;DHT22;30865;51.288;4.572;2022-12-31T12:16:51;19.20;60.40
45104;DHT22;30865;51.288;4.572;2022-12-31T12:19:17;19.00;61.70
45104;DHT22;30865;51.288;4.572;2022-12-31T12:21:47;19.10;60.90
45104;DHT22;30865;51.288;4.572;2022-12-31T12:24:33;19.30;59.80
45104;DHT22;30865;51.288;4.572;2022-12-31T12:26:59;19.30;59.80
45104;DHT22;30865;51.288;4.572;2022-12-31T12:29:30;19.20;60.40
45104;DHT22;30865;51.288;4.572;2022-12-31T12:31:59;19.60;58.70
45104;DHT22;30865;51.288;4.572;2022-12-31T12:34:28;19.40;60.40
45104;DHT22;30865;51.288;4.572;2022-12-31T12:36:54;19.20;60.90
45104;DHT22;30865;51.288;4.572;2022-12-31T12:39:25;19.00;61.30
45104;DHT22;30865;51.288;4.572;2022-12-31T12:42:11;19.10;60.80
45104;DHT22;30865;51.288;4.572;2022-12-31T12:44:38;19.10;60.60
45104;DHT22;30865;51.288;4.572;2022-12-31T12:47:05;19.00;62.10
45104;DHT22;30865;51.288;4.572;2022-12-31T12:49:41;18.90;61.40
45104;DHT22;30865;51.288;4.572;2022-12-31T12:55:02;19.00;61.10
45104;DHT22;30865;51.288;4.572;2022-12-31T12:57:49;19.10;59.60
45104;DHT22;30865;51.288;4.572;2022-12-31T13:03:24;19.10;60.20
45104;DHT22;30865;51.288;4.572;2022-12-31T13:14:52;19.20;59.70
45104;DHT22;30865;51.288;4.572;2022-12-31T13:17:28;19.00;59.80
45104;DHT22;30865;51.288;4.572;2022-12-31T13:20:12;18.90;61.30
45104;DHT22;30865;51.288;4.572;2022-12-31T13:22:43;18.90;61.50
45104;DHT22;30865;51.288;4.572;2022-12-31T13:28:04;18.80;62.80
45104;DHT22;30865;51.288;4.572;2022-12-31T13:30:38;18.70;62.40
45104;DHT22;30865;51.288;4.572;2022-12-31T13:33:21;18.70;63.40
45104;DHT22;30865;51.288;4.572;2022-12-31T13:36:24;18.60;63.60
45104;DHT22;30865;51.288;4.572;2022-12-31T13:38:48;18.60;63.00
45104;DHT22;30865;51.288;4.572;2022-12-31T13:41:35;18.50;64.30
45104;DHT22;30865;51.288;4.572;2022-12-31T13:47:30;18.50;65.80
45104;DHT22;30865;51.288;4.572;2022-12-31T13:50:05;18.40;64.70
45104;DHT22;30865;51.288;4.572;2022-12-31T13:52:45;18.40;65.80
45104;DHT22;30865;51.288;4.572;2022-12-31T13:55:32;18.40;66.30
45104;DHT22;30865;51.288;4.572;2022-12-31T13:58:20;18.40;65.20
45104;DHT22;30865;51.288;4.572;2022-12-31T14:01:15;18.40;65.30
45104;DHT22;30865;51.288;4.572;2022-12-31T14:06:53;18.30;66.60
45104;DHT22;30865;51.288;4.572;2022-12-31T14:09:23;18.30;67.90
45104;DHT22;30865;51.288;4.572;2022-12-31T14:15:02;18.00;67.70
45104;DHT22;30865;51.288;4.572;2022-12-31T14:17:55;18.00;67.50
45104;DHT22;30865;51.288;4.572;2022-12-31T14:20:45;17.90;67.70
45104;DHT22;30865;51.288;4.572;2022-12-31T14:23:29;17.90;67.80
45104;DHT22;30865;51.288;4.572;2022-12-31T14:26:01;17.80;69.50
45104;DHT22;30865;51.288;4.572;2022-12-31T14:28:34;17.80;69.20
45104;DHT22;30865;51.288;4.572;2022-12-31T14:31:17;17.60;69.70
45104;DHT22;30865;51.288;4.572;2022-12-31T14:34:08;17.60;69.90
45104;DHT22;30865;51.288;4.572;2022-12-31T14:39:20;17.40;70.60
45104;DHT22;30865;51.288;4.572;2022-12-31T14:50:20;17.30;71.80
45104;DHT22;30865;51.288;4.572;2022-12-31T14:55:26;17.20;72.00
45104;DHT22;30865;51.288;4.572;2022-12-31T14:57:53;17.10;73.10
45104;DHT22;30865;51.288;4.572;2022-12-31T15:00:38;17.00;73.00
45104;DHT22;30865;51.288;4.572;2022-12-31T15:05:56;16.80;74.40
45104;DHT22;30865;51.288;4.572;2022-12-31T15:08:41;16.60;75.50
45104;DHT22;30865;51.288;4.572;2022-12-31T15:17:22;16.10;78.10
45104;DHT22;30865;51.288;4.572;2022-12-31T15:22:48;15.90;79.20
45104;DHT22;30865;51.288;4.572;2022-12-31T15:25:36;15.80;80.10
45104;DHT22;30865;51.288;4.572;2022-12-31T15:28:28;15.80;80.00
45104;DHT22;30865;51.288;4.572;2022-12-31T15:30:50;15.70;80.30
45104;DHT22;30865;51.288;4.572;2022-12-31T15:33:38;15.60;80.70
45104;DHT22;30865;51.288;4.572;2022-12-31T15:36:19;15.50;81.00
45104;DHT22;30865;51.288;4.572;2022-12-31T15:38:45;15.50;81.90
45104;DHT22;30865;51.288;4.572;2022-12-31T15:44:05;15.40;82.10
45104;DHT22;30865;51.288;4.572;2022-12-31T15:46:36;15.30;82.90
45104;DHT22;30865;51.288;4.572;2022-12-31T15:49:08;15.10;83.40
45104;DHT22;30865;51.288;4.572;2022-12-31T15:51:46;15.10;84.20
45104;DHT22;30865;51.288;4.572;2022-12-31T15:54:28;15.00;84.20
45104;DHT22;30865;51.288;4.572;2022-12-31T15:56:55;15.00;83.50
45104;DHT22;30865;51.288;4.572;2022-12-31T15:59:21;15.10;83.40
45104;DHT22;30865;51.288;4.572;2022-12-31T16:01:48;15.00;84.00
45104;DHT22;30865;51.288;4.572;2022-12-31T16:04:18;14.90;84.40
45104;DHT22;30865;51.288;4.572;2022-12-31T16:06:45;14.70;85.30
45104;DHT22;30865;51.288;4.572;2022-12-31T16:09:21;14.70;85.40
45104;DHT22;30865;51.288;4.572;2022-12-31T16:11:48;14.70;86.10
45104;DHT22;30865;51.288;4.572;2022-12-31T16:14:23;14.60;85.50
45104;DHT22;30865;51.288;4.572;2022-12-31T16:16:53;14.60;86.10
45104;DHT22;30865;51.288;4.572;2022-12-31T16:19:41;14.50;86.70
45104;DHT22;30865;51.288;4.572;2022-12-31T16:22:15;14.40;86.30
45104;DHT22;30865;51.288;4.572;2022-12-31T16:24:41;14.40;87.00
45104;DHT22;30865;51.288;4.572;2022-12-31T16:27:12;14.40;87.30
45104;DHT22;30865;51.288;4.572;2022-12-31T16:29:43;14.30;86.90
45104;DHT22;30865;51.288;4.572;2022-12-31T16:32:15;14.20;87.30
45104;DHT22;30865;51.288;4.572;2022-12-31T16:34:41;14.20;87.50
45104;DHT22;30865;51.288;4.572;2022-12-31T16:37:15;14.10;87.90
45104;DHT22;30865;51.288;4.572;2022-12-31T16:40:11;14.10;88.30
45104;DHT22;30865;51.288;4.572;2022-12-31T16:42:40;14.00;88.80
45104;DHT22;30865;51.288;4.572;2022-12-31T16:45:27;13.90;89.10
45104;DHT22;30865;51.288;4.572;2022-12-31T16:47:54;13.70;90.10
45104;DHT22;30865;51.288;4.572;2022-12-31T16:50:21;13.60;90.00
45104;DHT22;30865;51.288;4.572;2022-12-31T16:52:56;13.70;90.10
45104;DHT22;30865;51.288;4.572;2022-12-31T16:55:26;13.70;90.20
45104;DHT22;30865;51.288;4.572;2022-12-31T16:58:00;13.70;90.10
45104;DHT22;30865;51.288;4.572;2022-12-31T17:00:27;13.60;90.10
45104;DHT22;30865;51.288;4.572;2022-12-31T17:03:22;13.50;90.40
45104;DHT22;30865;51.288;4.572;2022-12-31T17:06:14;13.50;90.60
45104;DHT22;30865;51.288;4.572;2022-12-31T17:16:36;13.40;90.70
45104;DHT22;30865;51.288;4.572;2022-12-31T17:19:02;13.40;90.70
45104;DHT22;30865;51.288;4.572;2022-12-31T17:21:29;13.40;90.80
45104;DHT22;30865;51.288;4.572;2022-12-31T17:24:00;13.40;91.00
45104;DHT22;30865;51.288;4.572;2022-12-31T17:26:30;13.30;90.90
45104;DHT22;30865;51.288;4.572;2022-12-31T17:28:57;13.30;91.50
45104;DHT22;30865;51.288;4.572;2022-12-31T17:33:53;13.00;91.40
45104;DHT22;30865;51.288;4.572;2022-12-31T17:36:21;13.00;91.70
45104;DHT22;30865;51.288;4.572;2022-12-31T17:38:48;13.10;91.50
45104;DHT22;30865;51.288;4.572;2022-12-31T17:43:52;13.00;91.40
45104;DHT22;30865;51.288;4.572;2022-12-31T17:46:18;13.00;91.40
45104;DHT22;30865;51.288;4.572;2022-12-31T17:48:49;12.90;91.40
45104;DHT22;30865;51.288;4.572;2022-12-31T17:51:15;13.00;91.50
45104;DHT22;30865;51.288;4.572;2022-12-31T17:53:41;12.90;91.50
45104;DHT22;30865;51.288;4.572;2022-12-31T17:56:09;13.00;91.80
45104;DHT22;30865;51.288;4.572;2022-12-31T17:58:46;12.80;91.60
45104;DHT22;30865;51.288;4.572;2022-12-31T18:01:15;12.80;91.70
45104;DHT22;30865;51.288;4.572;2022-12-31T18:03:41;12.70;92.10
45104;DHT22;30865;51.288;4.572;2022-12-31T18:06:10;12.70;91.80
45104;DHT22;30865;51.288;4.572;2022-12-31T18:08:36;12.60;91.80
45104;DHT22;30865;51.288;4.572;2022-12-31T18:11:06;12.60;92.60
45104;DHT22;30865;51.288;4.572;2022-12-31T18:13:34;12.60;92.10
45104;DHT22;30865;51.288;4.572;2022-12-31T18:15:59;12.40;92.70
45104;DHT22;30865;51.288;4.572;2022-12-31T18:18:28;12.40;92.60
45104;DHT22;30865;51.288;4.572;2022-12-31T18:20:58;12.30;92.70
45104;DHT22;30865;51.288;4.572;2022-12-31T18:23:30;12.30;93.00
45104;DHT22;30865;51.288;4.572;2022-12-31T18:25:57;12.30;93.00
45104;DHT22;30865;51.288;4.572;2022-12-31T18:28:22;12.30;93.00
45104;DHT22;30865;51.288;4.572;2022-12-31T18:30:48;12.40;93.00
45104;DHT22;30865;51.288;4.572;2022-12-31T18:33:14;12.40;92.70
45104;DHT22;30865;51.288;4.572;2022-12-31T18:35:47;12.40;92.90
45104;DHT22;30865;51.288;4.572;2022-12-31T18:38:13;12.40;92.70
45104;DHT22;30865;51.288;4.572;2022-12-31T18:40:40;12.30;92.60
45104;DHT22;30865;51.288;4.572;2022-12-31T18:43:18;12.20;92.60
45104;DHT22;30865;51.288;4.572;2022-12-31T18:45:45;12.20;92.70
45104;DHT22;30865;51.288;4.572;2022-12-31T18:48:10;12.20;93.00
45104;DHT22;30865;51.288;4.572;2022-12-31T18:50:37;12.20;92.80
45104;DHT22;30865;51.288;4.572;2022-12-31T18:53:03;12.30;93.10
45104;DHT22;30865;51.288;4.572;2022-12-31T18:55:38;12.30;93.20
45104;DHT22;30865;51.288;4.572;2022-12-31T18:58:08;12.30;93.20
45104;DHT22;30865;51.288;4.572;2022-12-31T19:00:34;12.30;93.10
45104;DHT22;30865;51.288;4.572;2022-12-31T19:02:59;12.20;93.20
45104;DHT22;30865;51.288;4.572;2022-12-31T19:05:28;12.20;93.20
45104;DHT22;30865;51.288;4.572;2022-12-31T19:07:54;12.20;93.20
45104;DHT22;30865;51.288;4.572;2022-12-31T19:10:20;12.10;93.20
45104;DHT22;30865;51.288;4.572;2022-12-31T19:12:46;12.20;93.30
45104;DHT22;30865;51.288;4.572;2022-12-31T19:15:24;12.10;93.20
45104;DHT22;30865;51.288;4.572;2022-12-31T19:17:51;12.00;93.70
45104;DHT22;30865;51.288;4.572;2022-12-31T19:20:17;11.90;93.50
45104;DHT22;30865;51.288;4.572;2022-12-31T19:22:42;11.90;93.60
45104;DHT22;30865;51.288;4.572;2022-12-31T19:25:34;11.90;94.00
45104;DHT22;30865;51.288;4.572;2022-12-31T19:28:02;11.80;93.80
45104;DHT22;30865;51.288;4.572;2022-12-31T19:30:32;11.70;94.10